Overview Statistics Trail Chart Weather Telemetry Raw packets
 

This is the latest recevied weather packets stored in our database for station/object KF6RAL-6. If no packets are shown the sender has not sent any weather packets the latest 10 day(s).

<< 44 45 46 47 48 49 50 >>
Time Temp. Humidity Pressure Rain* Wind** Luminosity Snow
1788227334 21.67° C 53% 1016.3 hPa 0 mm - - -
1788226913 21.67° C 52% 1016.6 hPa 0.25 mm - - -
1788226492 21.67° C 55% 1016.5 hPa 0.25 mm - - -
1788226071 21.67° C 52% 1015.7 hPa 0.51 mm - - -
1788225652 21.11° C 50% 1015.9 hPa 0.51 mm - - -
1788225229 21.11° C 52% 1016 hPa 0.51 mm - - -
1788224808 20.56° C 53% 1016.1 hPa 0.51 mm - - -
1788224387 19.44° C 57% 1016.3 hPa 0.51 mm - - -
1788223981 19.44° C 62% 1016.1 hPa 0.51 mm - - -
1788223546 19.44° C 62% 1016.1 hPa 0.25 mm - - -
1788223125 18.89° C 64% 1016.2 hPa 0.25 mm - - -
1788222705 20° C 61% 1016.8 hPa 0 mm - - -
1788222282 20.56° C 57% 1016.6 hPa 0 mm - - -
1788221861 21.67° C 54% 1016.2 hPa 0 mm - - -
1788221441 22.22° C 51% 1015.7 hPa 0 mm - - -
1788221023 22.78° C 45% 1015.6 hPa 0 mm - - -
1788220179 23.33° C 45% 1015.1 hPa 0.76 mm - - -
1788219756 23.33° C 44% 1014.6 hPa 0.76 mm - - -
1788219337 22.78° C 47% 1014.3 hPa 0.76 mm - - -
1788218914 22.78° C 49% 1014 hPa 0.76 mm - - -
1788218493 21.67° C 49% 1014.2 hPa 0.76 mm - - -
1788218073 23.33° C 47% 1013.7 hPa 0.76 mm - - -
1788217231 22.22° C 50% 1013.9 hPa 0.76 mm - - -
1788216809 23.89° C 56% 1015 hPa 0 mm - - -
1788216388 23.33° C 53% 1015.2 hPa 0 mm - - -

* Rain latest hour (hover to see other rain measurements)
** Current wind speed in m/s (hover to see current wind gust speed)